Ridgetown, Canada
Current Conditions -  °F | °C
As of 12:00 AM on Monday 22 Dec 2014 (Local Time) from CYCK Reporting Station
Overcast Overcast  
Wind Chill: -4°   Ceiling: 2500
Heat Index:   Visibility: 9mi
Dew Point: -4°   Wind: 8mph
Humidity: 75%   Direction: 140°SE
Pressure: 30.21"   Gusts: NA
Location:  42.43°N, 81.88°W
Report Text: CYCK 220500Z AUTO 14007KT 9SM OVC025 M00/M04 A3021 RMK SLP238
Loading
Personal Weather Stations






























Interactive Weather Map New forecast layout! Learn more

10-Day Weather Forecast

Advertisements
Track Severe Weather on mobile